Time,TemperatureF,DewpointF,PressureIn,WindDirection,WindDirectionDegrees,WindSpeedMPH,WindSpeedGustMPH,Humidity,HourlyPrecipIn,Conditions,Clouds,dailyrainin,SoftwareType,DateUTC
2013-05-15 00:04:00,75.7,62.2,29.73,South,180,6.3,-999.0,63,-99.99,,,0.00,Acu-Link.com,2013-05-15 05:04:00,
2013-05-15 00:19:00,75.4,62.8,29.73,SE,135,4.2,-999.0,65,-99.99,,,0.00,Acu-Link.com,2013-05-15 05:19:00,
2013-05-15 00:34:00,75.0,62.9,29.73,South,180,2.7,-999.0,66,-99.99,,,0.00,Acu-Link.com,2013-05-15 05:34:00,
2013-05-15 00:49:00,74.7,63.0,29.73,South,180,5.8,-999.0,67,-99.99,,,0.00,Acu-Link.com,2013-05-15 05:49:00,
2013-05-15 01:04:00,74.1,63.3,29.73,South,180,3.7,-999.0,69,-99.99,,,0.00,Acu-Link.com,2013-05-15 06:04:00,
2013-05-15 01:19:00,73.8,63.4,29.72,SSE,157,2.7,-999.0,70,-99.99,,,0.00,Acu-Link.com,2013-05-15 06:19:00,
2013-05-15 01:34:00,73.4,63.8,29.72,SSE,157,7.8,-999.0,72,-99.99,,,0.00,Acu-Link.com,2013-05-15 06:34:00,
2013-05-15 01:49:00,73.4,64.6,29.71,South,180,6.8,-999.0,74,-99.99,,,0.00,Acu-Link.com,2013-05-15 06:49:00,
2013-05-15 02:04:00,73.2,65.2,29.71,South,180,6.3,-999.0,76,-99.99,,,0.00,Acu-Link.com,2013-05-15 07:04:00,
2013-05-15 02:20:00,73.2,65.5,29.70,East,90,3.7,-999.0,77,-99.99,,,0.00,Acu-Link.com,2013-05-15 07:20:00,
2013-05-15 02:35:00,73.0,65.7,29.70,SSE,157,8.9,-999.0,78,-99.99,,,0.00,Acu-Link.com,2013-05-15 07:35:00,
2013-05-15 02:50:00,73.0,66.1,29.69,ESE,112,4.2,-999.0,79,-99.99,,,0.00,Acu-Link.com,2013-05-15 07:50:00,
2013-05-15 03:05:00,72.9,66.0,29.69,SSW,202,5.3,-999.0,79,-99.99,,,0.00,Acu-Link.com,2013-05-15 08:05:00,
2013-05-15 03:20:00,72.9,66.0,29.69,West,270,5.3,-999.0,79,-99.99,,,0.00,Acu-Link.com,2013-05-15 08:20:00,
2013-05-15 03:35:00,72.7,66.2,29.69,SE,135,7.3,-999.0,80,-99.99,,,0.00,Acu-Link.com,2013-05-15 08:35:00,
2013-05-15 03:50:00,72.7,66.2,29.69,SE,135,3.7,-999.0,80,-99.99,,,0.00,Acu-Link.com,2013-05-15 08:50:00,
2013-05-15 04:05:00,72.5,66.0,29.68,South,180,4.7,-999.0,80,-99.99,,,0.00,Acu-Link.com,2013-05-15 09:05:00,
2013-05-15 04:21:00,72.3,65.8,29.68,SE,135,7.3,-999.0,80,-99.99,,,0.00,Acu-Link.com,2013-05-15 09:21:00,
2013-05-15 04:36:00,72.1,65.9,29.68,ESE,112,7.3,-999.0,81,-99.99,,,0.00,Acu-Link.com,2013-05-15 09:36:00,
2013-05-15 04:51:00,72.1,65.9,29.68,SSE,157,2.2,-999.0,81,-99.99,,,0.00,Acu-Link.com,2013-05-15 09:51:00,
2013-05-15 05:06:00,72.0,66.2,29.68,SE,135,5.8,-999.0,82,-99.99,,,0.00,Acu-Link.com,2013-05-15 10:06:00,
2013-05-15 05:21:00,71.6,65.8,29.67,SE,135,8.3,-999.0,82,-99.99,,,0.00,Acu-Link.com,2013-05-15 10:21:00,
2013-05-15 05:36:00,71.6,65.8,29.67,South,180,9.9,-999.0,82,-99.99,,,0.00,Acu-Link.com,2013-05-15 10:36:00,
2013-05-15 05:51:00,71.6,65.8,29.68,SSE,157,6.3,-999.0,82,-99.99,,,0.00,Acu-Link.com,2013-05-15 10:51:00,
2013-05-15 06:06:00,71.6,65.8,29.68,SSE,157,4.2,-999.0,82,-99.99,,,0.00,Acu-Link.com,2013-05-15 11:06:00,
2013-05-15 06:21:00,71.6,65.8,29.68,ESE,112,4.2,-999.0,82,-99.99,,,0.00,Acu-Link.com,2013-05-15 11:21:00,
2013-05-15 06:37:00,71.6,65.8,29.68,South,180,4.2,-999.0,82,-99.99,,,0.00,Acu-Link.com,2013-05-15 11:37:00,
2013-05-15 06:52:00,71.6,65.8,29.68,SSW,202,3.2,-999.0,82,-99.99,,,0.00,Acu-Link.com,2013-05-15 11:52:00,
2013-05-15 07:22:00,71.2,66.1,29.68,SSE,157,5.3,-999.0,84,-99.99,,,0.00,Acu-Link.com,2013-05-15 12:22:00,
2013-05-15 07:37:00,70.5,66.8,29.70,South,180,4.2,-999.0,88,-99.99,,,0.00,Acu-Link.com,2013-05-15 12:37:00,
2013-05-15 07:52:00,70.0,66.6,29.71,SE,135,5.8,-999.0,89,-99.99,,,0.00,Acu-Link.com,2013-05-15 12:52:00,
2013-05-15 08:08:00,70.0,66.6,29.71,SSW,202,2.7,-999.0,89,-99.99,,,0.00,Acu-Link.com,2013-05-15 13:08:00,
2013-05-15 08:23:00,70.5,66.8,29.71,SE,135,4.2,-999.0,88,-99.99,,,0.00,Acu-Link.com,2013-05-15 13:23:00,
2013-05-15 08:38:00,70.7,67.0,29.71,SSE,157,6.8,-999.0,88,-99.99,,,0.00,Acu-Link.com,2013-05-15 13:38:00,
2013-05-15 08:54:00,71.1,67.0,29.72,SSW,202,5.8,-999.0,87,-99.99,,,0.00,Acu-Link.com,2013-05-15 13:54:00,
2013-05-15 09:09:00,72.0,67.6,29.71,South,180,4.7,-999.0,86,-99.99,,,0.00,Acu-Link.com,2013-05-15 14:09:00,
2013-05-15 09:54:00,73.8,67.2,29.70,SSE,157,4.7,-999.0,80,-99.99,,,0.00,Acu-Link.com,2013-05-15 14:54:00,
2013-05-15 10:09:00,74.8,66.7,29.71,SSE,157,4.7,-999.0,76,-99.99,,,0.00,Acu-Link.com,2013-05-15 15:09:00,
2013-05-15 10:25:00,75.7,66.8,29.70,WNW,292,5.8,-999.0,74,-99.99,,,0.00,Acu-Link.com,2013-05-15 15:25:00,
2013-05-15 10:40:00,75.9,66.6,29.70,East,90,6.8,-999.0,73,-99.99,,,0.00,Acu-Link.com,2013-05-15 15:40:00,
2013-05-15 11:10:00,77.7,67.1,29.69,SSW,202,4.7,-999.0,70,-99.99,,,0.00,Acu-Link.com,2013-05-15 16:10:00,
2013-05-15 11:25:00,77.9,67.3,29.69,South,180,7.3,-999.0,70,-99.99,,,0.00,Acu-Link.com,2013-05-15 16:25:00,
2013-05-15 11:40:00,78.1,67.5,29.68,SSE,157,4.2,-999.0,70,-99.99,,,0.00,Acu-Link.com,2013-05-15 16:40:00,
2013-05-15 11:56:00,76.1,66.8,29.68,SSE,157,6.8,-999.0,73,-99.99,,,0.00,Acu-Link.com,2013-05-15 16:56:00,
2013-05-15 12:11:00,75.9,67.0,29.68,SE,135,6.3,-999.0,74,-99.99,,,0.00,Acu-Link.com,2013-05-15 17:11:00,
2013-05-15 12:26:00,77.5,67.7,29.67,SSE,157,4.2,-999.0,72,-99.99,,,0.00,Acu-Link.com,2013-05-15 17:26:00,
2013-05-15 12:41:00,76.3,67.4,29.66,South,180,5.3,-999.0,74,-99.99,,,0.00,Acu-Link.com,2013-05-15 17:41:00,
2013-05-15 12:56:00,75.9,67.8,29.66,SSE,157,6.3,-999.0,76,-99.99,,,0.00,Acu-Link.com,2013-05-15 17:56:00,
2013-05-15 14:00:00,75.4,70.2,29.62,SSE,157,4.2,-999.0,84,-99.99,,,0.02,Acu-Link.com,2013-05-15 19:00:00,
2013-05-15 14:15:00,74.7,69.5,29.61,SSE,157,5.3,-999.0,84,-99.99,,,0.02,Acu-Link.com,2013-05-15 19:15:00,
2013-05-15 14:30:00,75.9,70.0,29.60,NNE,22,5.3,-999.0,82,-99.99,,,0.02,Acu-Link.com,2013-05-15 19:30:00,
2013-05-15 14:45:00,75.4,69.9,29.60,ESE,112,5.3,-999.0,83,-99.99,,,0.02,Acu-Link.com,2013-05-15 19:45:00,
2013-05-15 15:15:00,74.7,69.2,29.58,South,180,3.7,-999.0,83,-99.99,,,0.02,Acu-Link.com,2013-05-15 20:15:00,
2013-05-15 15:31:00,74.8,69.3,29.58,ESE,112,6.3,-999.0,83,-99.99,,,0.02,Acu-Link.com,2013-05-15 20:31:00,
2013-05-15 15:46:00,73.6,69.8,29.57,SSW,202,6.3,-999.0,88,-99.99,,,0.02,Acu-Link.com,2013-05-15 20:46:00,
2013-05-15 16:01:00,73.9,69.8,29.57,SE,135,6.8,-999.0,87,-99.99,,,0.03,Acu-Link.com,2013-05-15 21:01:00,
2013-05-15 16:16:00,74.5,70.4,29.56,South,180,4.7,-999.0,87,-99.99,,,0.03,Acu-Link.com,2013-05-15 21:16:00,
2013-05-15 16:31:00,75.0,69.8,29.55,South,180,5.3,-999.0,84,-99.99,,,0.03,Acu-Link.com,2013-05-15 21:31:00,
2013-05-15 16:46:00,76.5,70.2,29.53,SE,135,6.3,-999.0,81,-99.99,,,0.03,Acu-Link.com,2013-05-15 21:46:00,
2013-05-15 17:02:00,76.3,70.0,29.52,ESE,112,7.3,-999.0,81,-99.99,,,0.03,Acu-Link.com,2013-05-15 22:02:00,
2013-05-15 17:32:00,77.4,70.0,29.49,SSE,157,5.8,-999.0,78,-99.99,,,0.03,Acu-Link.com,2013-05-15 22:32:00,
2013-05-15 17:47:00,77.2,69.8,29.49,ESE,112,8.9,-999.0,78,-99.99,,,0.03,Acu-Link.com,2013-05-15 22:47:00,
2013-05-15 18:18:00,75.9,69.3,29.48,SSE,157,9.4,-999.0,80,-99.99,,,0.03,Acu-Link.com,2013-05-15 23:18:00,
2013-05-15 18:33:00,75.6,69.3,29.47,SSE,157,5.3,-999.0,81,-99.99,,,0.03,Acu-Link.com,2013-05-15 23:33:00,
2013-05-15 18:48:00,75.6,69.3,29.47,SSE,157,5.8,-999.0,81,-99.99,,,0.03,Acu-Link.com,2013-05-15 23:48:00,
2013-05-15 19:03:00,75.0,69.5,29.47,SSE,157,5.3,-999.0,83,-99.99,,,0.03,Acu-Link.com,2013-05-16 00:03:00,
2013-05-15 19:18:00,74.8,69.6,29.47,South,180,4.7,-999.0,84,-99.99,,,0.03,Acu-Link.com,2013-05-16 00:18:00,
2013-05-15 19:33:00,73.8,69.7,29.46,ESE,112,8.3,-999.0,87,-99.99,,,0.03,Acu-Link.com,2013-05-16 00:33:00,
2013-05-15 19:48:00,72.7,69.9,29.48,SE,135,7.3,-999.0,91,-99.99,,,0.03,Acu-Link.com,2013-05-16 00:48:00,
2013-05-15 20:23:00,71.1,67.7,29.44,SSE,157,12.5,-999.0,89,-99.99,,,0.07,Acu-Link.com,2013-05-16 01:23:00,
2013-05-15 20:38:00,70.9,70.0,29.47,SE,135,5.3,-999.0,97,-99.99,,,0.63,Acu-Link.com,2013-05-16 01:38:00,
2013-05-15 21:18:00,68.2,65.8,29.42,SSW,202,6.3,-999.0,92,-99.99,,,0.65,Acu-Link.com,2013-05-16 02:18:00,
2013-05-15 21:33:00,69.3,67.2,29.45,East,90,7.8,-999.0,93,-99.99,,,0.66,Acu-Link.com,2013-05-16 02:33:00,
2013-05-15 21:49:00,70.5,68.7,29.45,South,180,4.7,-999.0,94,-99.99,,,0.66,Acu-Link.com,2013-05-16 02:49:00,
2013-05-15 22:04:00,72.1,70.0,29.45,South,180,12.5,-999.0,93,-99.99,,,0.66,Acu-Link.com,2013-05-16 03:04:00,
2013-05-15 22:25:00,71.6,70.1,29.53,SSE,157,0.0,-999.0,95,-99.99,,,0.66,Acu-Link.com,2013-05-16 03:25:00,
2013-05-15 22:41:00,67.5,65.4,29.53,North,0,15.5,-999.0,93,-99.99,,,0.90,Acu-Link.com,2013-05-16 03:41:00,
2013-05-15 22:56:00,65.1,64.2,29.58,West,270,2.7,-999.0,97,-99.99,,,1.06,Acu-Link.com,2013-05-16 03:56:00,
2013-05-15 23:11:00,64.9,64.0,29.60,SE,135,0.0,-999.0,97,-99.99,,,1.06,Acu-Link.com,2013-05-16 04:11:00,
2013-05-15 23:35:00,64.4,62.6,29.50,SE,135,4.2,-999.0,94,-99.99,,,1.16,Acu-Link.com,2013-05-16 04:35:00,
2013-05-15 23:51:00,63.1,62.2,29.44,SE,135,8.9,-999.0,97,-99.99,,,1.21,Acu-Link.com,2013-05-16 04:51:00,